Time;durP1;ratioP1;P1;durP2;ratioP2;P2;SDS_P1;SDS_P2;PMS_P1;PMS_P2;Temp;Humidity;BMP_temperature;BMP_pressure;BME280_temperature;BME280_humidity;BME280_pressure;Samples;Min_cycle;Max_cycle;Signal;HPM_P1;HPM_P2
2022/03/31 00:00:18;;;;;;;2.90;2.70;;;6.20;1.40;;;7.35;100.00;93568.98;646356;216;35511;-75
2022/03/31 00:05:34;;;;;;;4.70;3.07;;;6.30;1.40;;;7.40;100.00;93567.55;646914;212;31590;-76
2022/03/31 00:08:16;;;;;;;3.37;3.00;;;6.30;1.40;;;7.34;100.00;93566.54;640207;216;31725;-75
2022/03/31 00:10:58;;;;;;;3.33;2.30;;;6.30;1.40;;;7.47;100.00;93565.96;619128;226;32316;-75
2022/03/31 00:13:41;;;;;;;2.85;1.87;;;6.30;1.40;;;7.54;100.00;93565.97;645316;216;31917;-75
2022/03/31 00:16:21;;;;;;;2.62;2.42;;;6.30;1.40;;;7.57;100.00;93571.19;647252;216;31717;-75
2022/03/31 00:19:11;;;;;;;4.03;2.15;;;6.40;1.40;;;7.71;100.00;93575.14;645940;216;31880;-75
2022/03/31 00:21:59;;;;;;;5.40;3.00;;;6.40;1.40;;;7.64;100.00;93564.26;618733;226;42713;-78
2022/03/31 00:24:47;;;;;;;5.50;3.60;;;6.50;1.40;;;7.65;100.00;93566.21;646160;212;42488;-76
2022/03/31 00:30:11;;;;;;;5.15;4.65;;;6.50;1.40;;;7.68;100.00;93565.52;619272;226;32558;-77
2022/03/31 00:32:53;;;;;;;7.82;3.25;;;6.60;1.40;;;7.65;100.00;93563.62;620255;222;42832;-78
2022/03/31 00:35:56;;;;;;;3.10;2.78;;;6.60;1.40;;;7.77;100.00;93559.14;619297;226;31984;-79
2022/03/31 00:39:28;;;;;;;6.53;3.20;;;6.60;1.40;;;7.70;100.00;93554.62;646337;216;31577;-75
2022/03/31 00:41:27;;;;;;;5.80;3.67;;;6.60;1.40;;;7.85;100.00;93553.80;646768;216;31854;-75
2022/03/31 00:44:07;;;;;;;3.20;2.90;;;6.60;1.40;;;7.81;100.00;93552.87;645937;216;31689;-75
2022/03/31 00:46:52;;;;;;;2.50;2.20;;;6.70;1.40;;;7.80;100.00;93545.51;646912;216;42486;-76
2022/03/31 00:49:39;;;;;;;5.03;3.97;;;6.60;1.40;;;7.79;100.00;93539.79;648539;212;42722;-79
2022/03/31 00:52:23;;;;;;;4.72;3.22;;;6.60;1.40;;;7.74;100.00;93544.84;646454;212;42375;-75
2022/03/31 00:55:10;;;;;;;6.00;3.33;;;6.60;1.40;;;7.81;100.00;93534.43;646198;216;31731;-77
2022/03/31 00:57:55;;;;;;;4.80;3.20;;;6.60;1.40;;;7.91;100.00;93534.77;647153;216;31543;-75
2022/03/31 01:00:40;;;;;;;5.00;2.80;;;6.60;1.40;;;7.95;100.00;93528.66;620533;226;31887;-78
2022/03/31 01:03:22;;;;;;;3.00;2.60;;;6.70;1.40;;;8.01;100.00;93523.84;620511;226;32462;-79
2022/03/31 01:06:13;;;;;;;3.25;2.95;;;6.70;1.40;;;7.88;100.00;93524.49;648703;212;31543;-79
2022/03/31 01:09:13;;;;;;;4.85;2.65;;;6.70;1.40;;;7.84;100.00;93529.11;634860;216;31748;-75
2022/03/31 01:11:54;;;;;;;1.65;1.55;;;6.70;1.40;;;7.86;100.00;93519.13;646890;212;31575;-75
2022/03/31 01:17:10;;;;;;;3.37;2.47;;;6.80;1.40;;;7.86;100.00;93508.77;619544;222;31936;-75
2022/03/31 01:19:55;;;;;;;4.70;3.30;;;6.80;1.40;;;8.04;100.00;93505.78;646833;216;42747;-74
2022/03/31 01:22:37;;;;;;;3.62;2.92;;;6.80;1.40;;;7.97;100.00;93499.86;619128;222;32175;-74
2022/03/31 01:25:18;;;;;;;3.53;2.70;;;6.80;1.40;;;8.14;100.00;93499.27;619931;222;32022;-75
2022/03/31 01:28:00;;;;;;;5.20;3.30;;;6.80;1.40;;;8.04;100.00;93497.77;646883;216;31557;-76
2022/03/31 01:30:45;;;;;;;5.20;4.63;;;6.80;1.40;;;8.10;100.00;93494.05;619614;222;32249;-79
2022/03/31 01:35:50;;;;;;;8.27;3.17;;;6.80;1.40;;;8.02;100.00;93488.65;647053;216;31573;-77
2022/03/31 01:38:32;;;;;;;3.10;2.07;;;6.80;1.40;;;8.12;100.00;93488.21;647268;216;31566;-75
2022/03/31 01:41:14;;;;;;;5.62;2.97;;;6.80;1.40;;;8.01;100.00;93481.31;646321;216;31660;-75
2022/03/31 01:43:56;;;;;;;4.45;2.60;;;6.70;1.40;;;8.01;100.00;93477.55;648712;212;31569;-78
2022/03/31 01:46:44;;;;;;;2.53;2.25;;;6.70;1.40;;;7.90;100.00;93480.05;646678;216;31680;-76
2022/03/31 01:49:29;;;;;;;7.37;4.97;;;6.50;1.40;;;7.88;100.00;93471.77;648172;216;31824;-79
2022/03/31 01:52:10;;;;;;;6.55;4.45;;;6.60;1.40;;;7.93;100.00;93469.34;647362;212;42202;-77
2022/03/31 01:54:58;;;;;;;4.53;3.13;;;6.60;1.40;;;7.87;100.00;93465.94;646287;216;31615;-77
2022/03/31 01:57:40;;;;;;;4.43;2.47;;;6.70;1.40;;;7.84;100.00;93458.87;646536;216;31788;-75
2022/03/31 02:00:24;;;;;;;4.30;3.10;;;6.70;1.40;;;8.02;100.00;93459.26;619133;222;31909;-78
2022/03/31 02:03:05;;;;;;;6.90;3.83;;;6.70;1.40;;;8.04;100.00;93455.39;648462;216;31544;-77
2022/03/31 02:05:48;;;;;;;3.20;2.90;;;6.70;1.40;;;8.09;100.00;93456.32;647348;216;31581;-79
2022/03/31 02:08:31;;;;;;;3.43;2.40;;;6.70;1.40;;;7.90;100.00;93448.73;638186;216;31892;-76
2022/03/31 02:11:13;;;;;;;6.30;4.03;;;6.60;1.40;;;7.81;100.00;93442.33;646393;212;32232;-75
2022/03/31 02:13:55;;;;;;;4.90;2.33;;;6.60;1.40;;;8.00;100.00;93437.22;618673;226;32453;-75
2022/03/31 02:16:36;;;;;;;3.95;2.37;;;6.60;1.40;;;7.72;100.00;93438.50;647046;216;31686;-75
2022/03/31 02:19:18;;;;;;;7.30;4.07;;;6.50;1.40;;;7.79;100.00;93432.53;647797;212;31719;-75
2022/03/31 02:24:37;;;;;;;5.07;3.13;;;6.60;1.40;;;7.98;100.00;93425.89;647844;212;31544;-76
2022/03/31 02:27:19;;;;;;;5.63;3.80;;;6.60;1.40;;;7.90;100.00;93421.13;645949;212;31943;-76
2022/03/31 02:30:00;;;;;;;5.93;3.55;;;6.60;1.40;;;7.95;100.00;93419.30;646701;212;31559;-76
2022/03/31 02:32:43;;;;;;;6.20;3.40;;;6.60;1.40;;;7.95;100.00;93410.32;646140;216;31575;-76
2022/03/31 02:35:51;;;;;;;3.90;2.60;;;6.60;1.40;;;8.18;100.00;93405.91;647161;212;32164;-76
2022/03/31 02:38:36;;;;;;;3.57;2.87;;;6.70;1.40;;;8.23;100.00;93402.16;646817;216;31603;-79
2022/03/31 02:41:16;;;;;;;3.47;2.85;;;6.60;1.40;;;8.12;100.00;93396.36;648271;212;31580;-78
2022/03/31 02:44:04;;;;;;;5.70;3.93;;;6.60;1.40;;;7.99;100.00;93390.97;647002;212;32098;-76
2022/03/31 02:46:52;;;;;;;7.00;3.87;;;6.50;1.40;;;7.74;100.00;93391.38;620127;222;42625;-78
2022/03/31 02:49:34;;;;;;;5.07;4.17;;;6.50;1.40;;;7.54;100.00;93388.51;654084;216;25820;-77
2022/03/31 02:52:18;;;;;;;6.03;4.00;;;6.40;1.40;;;7.60;100.00;93385.69;646037;212;31725;-75
2022/03/31 02:57:48;;;;;;;6.00;4.27;;;6.40;1.40;;;7.06;100.00;93396.02;646945;212;31691;-78
2022/03/31 03:00:32;;;;;;;5.85;4.07;;;6.30;1.40;;;7.19;100.00;93401.44;645913;212;31566;-75
2022/03/31 03:03:32;;;;;;;7.87;4.17;;;6.30;1.40;;;7.05;100.00;93396.20;648232;216;31509;-79
2022/03/31 03:06:13;;;;;;;7.05;3.60;;;6.30;1.40;;;7.19;100.00;93391.53;620785;226;31995;-78
2022/03/31 03:09:00;;;;;;;4.82;2.22;;;6.30;1.40;;;7.17;100.00;93390.74;636946;216;31833;-77
2022/03/31 03:11:46;;;;;;;3.60;3.30;;;6.30;1.40;;;7.51;100.00;93387.88;620306;226;32464;-79
2022/03/31 03:14:27;;;;;;;5.70;3.17;;;6.40;1.40;;;7.70;100.00;93375.65;642524;216;44364;-78
2022/03/31 03:17:11;;;;;;;4.60;3.22;;;6.50;1.40;;;7.85;100.00;93378.31;647661;212;32191;-76
2022/03/31 03:19:58;;;;;;;6.90;4.05;;;6.50;1.40;;;7.85;100.00;93371.84;645491;216;42872;-75
2022/03/31 03:22:41;;;;;;;7.00;4.68;;;6.40;1.40;;;7.88;100.00;93379.51;646059;216;32167;-75
2022/03/31 03:28:04;;;;;;;4.00;3.20;;;6.40;1.40;;;7.65;100.00;93374.80;618138;226;31983;-76
2022/03/31 03:30:53;;;;;;;5.53;3.43;;;6.30;1.40;;;7.66;100.00;93370.80;648250;216;31592;-78
2022/03/31 03:35:51;;;;;;;4.68;3.00;;;6.30;1.40;;;7.52;100.00;93370.00;646860;216;32346;-74
2022/03/31 03:38:33;;;;;;;5.35;2.90;;;6.20;1.40;;;7.32;100.00;93370.47;646060;216;32065;-75
2022/03/31 03:41:14;;;;;;;5.12;2.40;;;6.10;1.40;;;7.42;100.00;93363.66;647433;212;31641;-75
2022/03/31 03:44:02;;;;;;;4.82;3.42;;;6.10;1.40;;;7.61;100.00;93363.81;647240;216;31602;-79
2022/03/31 03:46:50;;;;;;;4.62;2.28;;;6.20;1.40;;;7.55;100.00;93364.13;646879;212;31561;-76
2022/03/31 03:49:37;;;;;;;5.45;5.05;;;6.20;1.40;;;7.31;100.00;93362.98;643578;216;31708;-79
2022/03/31 03:52:19;;;;;;;4.25;3.03;;;6.10;1.40;;;7.58;100.00;93358.78;648308;216;31575;-79
2022/03/31 03:55:07;;;;;;;5.45;3.80;;;6.10;1.40;;;7.38;100.00;93353.83;646650;212;43735;-75
2022/03/31 03:57:55;;;;;;;4.87;2.60;;;6.10;1.40;;;7.40;100.00;93352.11;619415;226;31910;-77
2022/03/31 04:00:43;;;;;;;4.10;3.80;;;6.10;1.40;;;7.62;100.00;93351.41;646359;212;31742;-75
2022/03/31 04:03:30;;;;;;;4.30;3.40;;;6.20;1.40;;;7.62;100.00;93355.53;648272;216;32001;-78
2022/03/31 04:06:13;;;;;;;5.40;4.43;;;6.20;1.40;;;7.53;100.00;93360.14;647702;216;42183;-78
2022/03/31 04:08:58;;;;;;;4.78;3.58;;;6.20;1.40;;;7.64;100.00;93363.83;648544;212;31623;-77
2022/03/31 04:11:41;;;;;;;5.47;4.10;;;6.30;1.40;;;7.75;100.00;93365.13;647242;216;31764;-77
2022/03/31 04:14:26;;;;;;;7.05;4.85;;;6.30;1.40;;;7.34;100.00;93363.25;620629;222;32332;-77
2022/03/31 04:17:12;;;;;;;4.45;4.15;;;6.20;1.40;;;7.49;100.00;93369.45;647295;212;31533;-77
2022/03/31 04:19:56;;;;;;;7.47;4.07;;;6.20;1.40;;;7.68;100.00;93372.60;618482;226;32059;-76
2022/03/31 04:22:38;;;;;;;7.10;4.07;;;6.20;1.40;;;7.71;100.00;93373.97;646331;216;32065;-75
2022/03/31 04:25:24;;;;;;;4.10;3.70;;;6.20;1.40;;;7.55;100.00;93373.22;646564;212;31571;-75
2022/03/31 04:28:04;;;;;;;5.80;3.30;;;6.20;1.40;;;7.65;100.00;93369.13;646867;216;42370;-75
2022/03/31 04:30:49;;;;;;;5.47;3.37;;;6.20;1.40;;;7.64;100.00;93368.48;646192;216;42178;-75
2022/03/31 04:35:51;;;;;;;3.83;2.17;;;6.20;1.40;;;7.33;100.00;93363.32;645587;212;31890;-76
2022/03/31 04:38:33;;;;;;;5.75;3.78;;;6.10;1.40;;;7.54;100.00;93361.48;646808;212;42492;-77
2022/03/31 04:41:21;;;;;;;7.07;3.85;;;6.20;1.40;;;7.63;100.00;93362.44;622634;226;42721;-79
2022/03/31 04:44:04;;;;;;;7.20;4.60;;;6.20;1.40;;;7.48;100.00;93357.39;647678;212;32305;-75
2022/03/31 04:46:46;;;;;;;7.80;4.10;;;6.20;1.40;;;7.41;100.00;93351.31;645983;216;31614;-75
2022/03/31 04:49:42;;;;;;;3.25;2.35;;;6.10;1.40;;;7.34;100.00;93350.92;647761;216;31575;-79
2022/03/31 04:52:39;;;;;;;5.20;3.78;;;6.10;1.40;;;7.38;100.00;93344.28;645244;216;42215;-76
2022/03/31 04:55:31;;;;;;;8.05;4.30;;;6.10;1.40;;;7.40;100.00;93338.77;621622;222;31953;-78
2022/03/31 04:58:14;;;;;;;6.82;4.05;;;6.10;1.40;;;7.55;100.00;93342.29;623180;222;32020;-79
2022/03/31 05:00:58;;;;;;;4.50;3.70;;;6.20;1.40;;;7.40;100.00;93341.64;646450;216;31563;-77
2022/03/31 05:03:39;;;;;;;6.30;3.75;;;6.10;1.40;;;7.56;100.00;93348.08;646104;212;32196;-76
2022/03/31 05:06:27;;;;;;;6.60;3.20;;;6.20;1.40;;;7.70;100.00;93351.82;647106;212;42196;-79
2022/03/31 05:09:25;;;;;;;6.03;3.50;;;6.30;1.40;;;7.74;100.00;93350.77;653056;216;31573;-78
2022/03/31 05:12:13;;;;;;;6.18;4.78;;;6.30;1.40;;;7.68;100.00;93345.09;646790;216;42317;-77
2022/03/31 05:14:55;;;;;;;6.55;3.90;;;6.30;1.40;;;7.86;100.00;93344.81;646470;216;32681;-76
2022/03/31 05:17:37;;;;;;;4.55;3.83;;;6.40;1.40;;;7.37;100.00;93341.25;645824;216;31549;-76
2022/03/31 05:20:20;;;;;;;6.57;3.55;;;6.30;1.40;;;7.25;100.00;93340.78;645871;216;31734;-78
2022/03/31 05:23:03;;;;;;;4.33;3.83;;;6.30;1.40;;;7.23;100.00;93342.19;619308;222;32499;-76
2022/03/31 05:25:45;;;;;;;5.97;4.05;;;6.30;1.40;;;7.23;100.00;93342.99;646997;212;31733;-76
2022/03/31 05:28:27;;;;;;;6.43;4.10;;;6.20;1.40;;;7.29;100.00;93336.61;647286;216;32204;-77
2022/03/31 05:31:08;;;;;;;5.43;3.45;;;6.30;1.40;;;7.25;100.00;93335.12;646963;212;31641;-75
2022/03/31 05:35:51;;;;;;;7.53;5.43;;;6.30;1.40;;;7.31;100.00;93335.62;645974;212;32273;-76
2022/03/31 05:38:40;;;;;;;5.43;3.47;;;6.30;1.40;;;7.40;100.00;93336.54;618124;226;31894;-80
2022/03/31 05:41:25;;;;;;;5.57;5.07;;;6.30;1.40;;;7.55;100.00;93335.89;647863;216;31583;-75
2022/03/31 05:44:09;;;;;;;4.72;4.15;;;6.40;1.40;;;7.72;100.00;93329.15;628413;220;31650;-80
2022/03/31 05:46:52;;;;;;;7.20;4.30;;;6.50;1.40;;;7.80;100.00;93329.81;619744;222;31931;-75
2022/03/31 05:49:34;;;;;;;5.55;4.85;;;6.40;1.40;;;7.88;100.00;93331.80;645944;212;31586;-77
2022/03/31 05:52:22;;;;;;;5.30;3.60;;;6.50;1.40;;;8.02;100.00;93336.50;648997;212;31523;-79
2022/03/31 05:55:43;;;;;;;6.40;3.47;;;6.50;1.40;;;8.05;100.00;93336.68;642729;217;31599;-80
2022/03/31 05:58:23;;;;;;;6.25;3.15;;;6.50;1.40;;;8.03;100.00;93339.30;649297;216;31584;-80
2022/03/31 06:01:11;;;;;;;4.43;2.30;;;6.50;1.40;;;7.84;100.00;93338.81;646418;216;31583;-75
2022/03/31 06:03:55;;;;;;;4.50;4.20;;;6.50;1.40;;;7.77;100.00;93338.81;646472;216;42219;-75
2022/03/31 06:06:34;;;;;;;5.73;3.93;;;6.40;1.40;;;7.90;100.00;93335.34;646206;216;32123;-77
2022/03/31 06:09:16;;;;;;;6.45;5.50;;;6.50;1.40;;;8.11;100.00;93339.31;635018;216;31752;-77
2022/03/31 06:11:58;;;;;;;7.57;2.70;;;6.50;1.40;;;7.88;100.00;93339.20;645394;216;31561;-76
2022/03/31 06:14:45;;;;;;;5.53;3.75;;;6.50;1.40;;;7.89;100.00;93335.98;619858;226;32012;-80
2022/03/31 06:17:34;;;;;;;6.33;3.57;;;6.50;1.40;;;8.06;100.00;93339.20;646967;216;31701;-76
2022/03/31 06:20:19;;;;;;;5.15;3.70;;;6.60;1.40;;;7.92;100.00;93338.22;647074;216;31794;-77
2022/03/31 06:23:00;;;;;;;5.00;4.10;;;6.50;1.40;;;8.00;100.00;93332.08;646888;216;31710;-75
2022/03/31 06:25:45;;;;;;;5.23;4.20;;;6.50;1.40;;;8.18;100.00;93336.60;646590;216;31590;-75
2022/03/31 06:28:28;;;;;;;8.55;4.90;;;6.60;1.40;;;8.32;100.00;93328.53;646844;212;31566;-75
2022/03/31 06:31:09;;;;;;;5.33;3.43;;;6.70;1.40;;;8.12;100.00;93327.30;647184;216;31726;-75
2022/03/31 06:35:51;;;;;;;7.40;5.15;;;6.70;1.40;;;8.35;100.00;93321.25;646924;212;31594;-76
2022/03/31 06:38:33;;;;;;;7.57;3.03;;;6.80;1.40;;;8.32;100.00;93321.05;647090;212;31574;-76
2022/03/31 06:41:15;;;;;;;9.82;4.25;;;6.80;1.40;;;8.48;100.00;93319.68;646200;212;31561;-77
2022/03/31 06:43:57;;;;;;;6.67;5.00;;;6.90;1.40;;;8.63;100.00;93317.02;617590;225;31987;-77
2022/03/31 06:46:38;;;;;;;7.22;3.67;;;7.00;1.40;;;8.64;100.00;93318.93;647203;212;31594;-76
2022/03/31 06:49:21;;;;;;;6.33;4.00;;;7.10;1.40;;;8.71;100.00;93316.28;647227;216;31536;-76
2022/03/31 06:52:01;;;;;;;8.48;6.30;;;7.10;1.40;;;8.86;100.00;93315.84;645652;216;31638;-76
2022/03/31 06:54:43;;;;;;;9.27;6.43;;;7.10;1.40;;;8.75;100.00;93326.45;647294;216;31554;-76
2022/03/31 06:57:25;;;;;;;12.13;6.60;;;7.10;1.40;;;8.75;100.00;93319.56;618737;226;42558;-75
2022/03/31 07:00:14;;;;;;;7.65;5.50;;;7.10;1.40;;;8.85;100.00;93322.40;642575;217;31603;-80
2022/03/31 07:03:01;;;;;;;5.60;5.10;;;7.20;1.40;;;9.02;100.00;93318.88;619197;226;32020;-75
2022/03/31 07:05:46;;;;;;;6.37;4.30;;;7.30;1.40;;;9.20;100.00;93321.78;645925;216;31544;-76
2022/03/31 07:08:28;;;;;;;8.00;4.57;;;7.40;1.40;;;9.24;100.00;93314.33;608218;230;32189;-76
2022/03/31 07:11:10;;;;;;;5.93;4.63;;;7.40;1.40;;;9.39;100.00;93316.13;645359;216;31592;-77
2022/03/31 07:13:52;;;;;;;7.90;6.30;;;7.50;1.40;;;9.51;100.00;93310.84;617554;222;31985;-75
2022/03/31 07:16:33;;;;;;;5.80;4.87;;;7.60;1.40;;;9.51;100.00;93308.53;647461;216;31605;-76
2022/03/31 07:19:15;;;;;;;4.97;4.00;;;7.60;1.40;;;9.70;100.00;93304.84;646728;216;31580;-76
2022/03/31 07:21:57;;;;;;;6.40;5.07;;;7.70;1.40;;;9.85;100.00;93306.70;646344;216;31557;-76
2022/03/31 07:24:42;;;;;;;5.30;4.80;;;7.90;1.40;;;9.76;100.00;93309.30;646801;212;31576;-76
2022/03/31 07:27:23;;;;;;;8.07;6.47;;;8.00;1.40;;;9.69;100.00;93305.00;645693;216;31766;-76
2022/03/31 07:30:05;;;;;;;11.27;5.00;;;8.10;1.40;;;9.44;100.00;93304.52;647405;212;31586;-76
2022/03/31 07:32:53;;;;;;;7.80;6.33;;;8.10;1.40;;;9.70;100.00;93302.72;647462;216;31584;-77
2022/03/31 07:35:50;;;;;;;8.63;5.20;;;8.30;1.40;;;9.61;100.00;93300.91;645860;216;31659;-76
2022/03/31 07:38:38;;;;;;;9.83;6.30;;;8.40;1.40;;;10.74;100.00;93302.31;647502;216;31918;-81
2022/03/31 07:41:26;;;;;;;10.03;5.63;;;8.80;1.40;;;10.73;100.00;93305.12;646832;216;31555;-76
2022/03/31 07:44:07;;;;;;;7.63;5.73;;;9.10;1.40;;;11.19;100.00;93309.66;645517;216;31537;-77
2022/03/31 07:49:26;;;;;;;8.93;5.57;;;9.60;1.40;;;11.32;100.00;93306.33;646489;216;32462;-76
2022/03/31 07:54:45;;;;;;;7.80;6.00;;;9.50;1.40;;;12.01;100.00;93299.94;645883;216;42889;-76
2022/03/31 07:57:27;;;;;;;9.60;6.30;;;9.70;1.40;;;12.26;100.00;93295.33;646154;212;32732;-77
2022/03/31 08:00:10;;;;;;;8.63;6.70;;;9.80;1.40;;;12.37;100.00;93293.53;645779;216;31688;-76
2022/03/31 08:02:59;;;;;;;6.70;5.63;;;9.80;1.40;;;12.40;100.00;93290.44;618928;222;31891;-76
2022/03/31 08:05:39;;;;;;;8.50;4.82;;;9.70;1.40;;;11.72;100.00;93291.65;646836;216;31661;-77
2022/03/31 08:08:20;;;;;;;8.40;6.03;;;9.30;1.40;;;12.10;100.00;93284.60;618206;226;42587;-76
2022/03/31 08:11:02;;;;;;;8.73;5.78;;;9.60;1.40;;;12.24;100.00;93285.04;646902;216;31616;-76
2022/03/31 08:13:47;;;;;;;8.17;5.23;;;9.70;1.40;;;12.57;100.00;93286.45;618005;226;32255;-76
2022/03/31 08:16:29;;;;;;;9.50;6.03;;;10.00;1.40;;;12.66;100.00;93287.27;618586;226;32115;-76
2022/03/31 08:19:10;;;;;;;7.30;6.17;;;9.80;1.40;;;12.37;100.00;93288.72;647806;216;31654;-76
2022/03/31 08:21:52;;;;;;;7.37;5.50;;;9.90;1.40;;;11.18;100.00;93293.64;647956;216;31697;-77
2022/03/31 08:24:34;;;;;;;11.20;6.77;;;9.50;1.40;;;12.03;100.00;93293.56;646012;216;31722;-76
2022/03/31 08:27:18;;;;;;;7.20;6.03;;;9.60;1.40;;;11.86;100.00;93297.84;646702;216;31572;-76
2022/03/31 08:30:00;;;;;;;8.93;6.83;;;9.70;1.40;;;11.06;100.00;93300.84;646024;216;42192;-77
2022/03/31 08:32:43;;;;;;;7.70;5.27;;;9.20;1.40;;;11.38;100.00;93295.17;645956;216;42196;-77
2022/03/31 08:35:51;;;;;;;6.28;5.07;;;9.20;1.40;;;10.94;100.00;93298.27;646357;216;31683;-77
2022/03/31 08:38:33;;;;;;;10.77;5.90;;;9.20;1.40;;;10.85;100.00;93292.01;618506;226;31936;-77
2022/03/31 08:41:14;;;;;;;6.60;5.17;;;9.10;1.40;;;10.99;100.00;93296.44;645699;212;31633;-76
2022/03/31 08:43:56;;;;;;;8.37;5.80;;;9.20;1.40;;;11.12;100.00;93292.30;618956;226;31928;-78
2022/03/31 08:46:41;;;;;;;8.70;6.00;;;9.40;1.40;;;11.81;100.00;93292.17;645213;216;42209;-76
2022/03/31 08:49:30;;;;;;;9.20;6.00;;;9.60;1.40;;;11.26;100.00;93293.19;619886;223;32066;-79
2022/03/31 08:52:11;;;;;;;11.23;6.13;;;9.60;1.40;;;11.47;100.00;93291.00;649343;212;31494;-81
2022/03/31 08:54:59;;;;;;;9.67;5.80;;;9.80;1.40;;;12.13;100.00;93290.41;619289;226;42554;-79
2022/03/31 08:57:48;;;;;;;10.27;7.30;;;10.10;1.40;;;12.44;100.00;93291.55;646971;216;31577;-77
2022/03/31 09:00:30;;;;;;;9.43;6.20;;;10.20;1.40;;;12.50;100.00;93292.65;647248;216;31616;-76
2022/03/31 09:03:11;;;;;;;8.07;5.80;;;10.20;1.40;;;12.10;100.00;93289.23;646197;216;31565;-76
2022/03/31 09:05:53;;;;;;;8.27;6.03;;;10.20;1.40;;;12.12;100.00;93286.45;618792;222;32612;-76
2022/03/31 09:08:41;;;;;;;7.30;6.20;;;10.10;1.40;;;11.98;100.00;93296.70;634174;221;43194;-80
2022/03/31 09:11:29;;;;;;;13.45;6.78;;;10.00;1.40;;;12.18;100.00;93286.84;645558;216;32468;-76
2022/03/31 09:14:11;;;;;;;7.23;5.50;;;10.40;1.40;;;12.48;100.00;93287.28;647229;214;31580;-76
2022/03/31 09:16:53;;;;;;;8.10;5.82;;;10.60;1.40;;;12.24;100.00;93283.36;647483;212;32246;-76
2022/03/31 09:19:34;;;;;;;8.07;5.97;;;10.50;1.40;;;12.75;100.00;93280.23;645678;212;31669;-77
2022/03/31 09:22:16;;;;;;;6.80;4.50;;;10.70;1.40;;;13.08;100.00;93279.84;646963;216;31594;-76
2022/03/31 09:25:01;;;;;;;7.40;5.47;;;11.00;1.40;;;13.91;100.00;93276.38;646485;212;31530;-78
2022/03/31 09:27:42;;;;;;;7.70;4.80;;;11.30;1.40;;;13.23;100.00;93283.12;647352;216;31782;-76
2022/03/31 09:30:24;;;;;;;7.45;5.35;;;11.10;1.40;;;13.20;100.00;93280.34;619826;226;36933;-77
2022/03/31 09:35:57;;;;;;;9.45;5.90;;;11.10;1.40;;;13.08;100.00;93282.28;645574;216;31565;-76
2022/03/31 09:38:39;;;;;;;11.12;7.00;;;11.10;1.40;;;12.93;100.00;93278.17;618998;225;32093;-76
2022/03/31 09:41:21;;;;;;;6.93;4.40;;;11.20;1.40;;;13.37;100.00;93277.66;645239;216;31543;-76
2022/03/31 09:44:09;;;;;;;9.00;5.47;;;11.30;1.40;;;14.34;100.00;93276.58;647684;212;33833;-80
2022/03/31 09:46:56;;;;;;;9.35;5.90;;;11.70;1.40;;;14.17;100.00;93274.97;646450;216;31701;-78
2022/03/31 09:49:41;;;;;;;9.82;5.57;;;11.30;1.40;;;13.48;100.00;93280.80;618783;222;42582;-76
2022/03/31 09:52:29;;;;;;;10.23;6.40;;;11.20;1.40;;;13.47;100.00;93279.95;617094;226;31842;-80
2022/03/31 09:55:18;;;;;;;9.98;5.43;;;11.20;1.40;;;13.09;100.00;93280.97;619413;226;41968;-76
2022/03/31 09:57:58;;;;;;;7.12;5.10;;;11.10;1.40;;;13.18;100.00;93282.34;647237;216;31551;-76
2022/03/31 10:00:40;;;;;;;9.60;6.32;;;10.90;1.40;;;13.23;100.00;93282.27;645154;212;31871;-76
2022/03/31 10:03:24;;;;;;;8.80;5.97;;;11.00;1.40;;;12.75;100.00;93283.63;647058;216;42304;-76
2022/03/31 10:06:03;;;;;;;10.27;5.28;;;10.90;1.40;;;13.12;100.00;93285.42;645486;216;42207;-76
2022/03/31 10:08:56;;;;;;;10.20;6.05;;;11.10;1.40;;;13.64;100.00;93275.23;648752;212;37818;-80
2022/03/31 10:11:41;;;;;;;10.13;5.62;;;11.20;1.40;;;13.83;100.00;93269.94;647625;212;31968;-80
2022/03/31 10:14:47;;;;;;;8.93;5.57;;;11.20;1.40;;;13.74;100.00;93268.75;643493;213;42194;-78
2022/03/31 10:17:28;;;;;;;13.40;6.80;;;11.00;1.40;;;13.81;100.00;93265.23;645980;216;32806;-80
2022/03/31 10:20:13;;;;;;;9.80;5.87;;;10.90;1.40;;;12.47;100.00;93259.73;646869;216;42194;-77
2022/03/31 10:25:45;;;;;;;7.70;5.50;;;10.70;1.40;;;13.03;100.00;93259.66;646428;216;33288;-78
2022/03/31 10:28:31;;;;;;;10.52;5.40;;;10.90;1.40;;;13.44;100.00;93252.31;648679;212;31544;-80
2022/03/31 10:31:19;;;;;;;8.13;6.17;;;11.30;1.40;;;13.04;100.00;93257.66;643326;215;42233;-76
2022/03/31 10:36:05;;;;;;;8.90;5.75;;;11.40;1.40;;;13.15;100.00;93257.70;646459;216;31622;-76
2022/03/31 10:41:35;;;;;;;7.68;4.72;;;11.80;1.40;;;14.62;100.00;93244.58;647731;216;31876;-79
2022/03/31 10:44:20;;;;;;;9.32;5.65;;;12.00;1.40;;;14.88;97.80;93238.59;646048;216;32188;-76
2022/03/31 10:47:01;;;;;;;9.75;5.32;;;12.00;1.40;;;15.05;96.13;93238.96;646750;212;31582;-76
2022/03/31 10:49:52;;;;;;;8.82;5.30;;;12.30;1.40;;;14.86;97.74;93231.84;616589;226;32093;-81
2022/03/31 10:52:39;;;;;;;9.90;4.82;;;12.10;1.40;;;15.08;95.39;93235.98;645639;216;41669;-76
2022/03/31 10:55:34;;;;;;;7.45;5.25;;;12.20;1.40;;;15.34;97.19;93228.04;647636;216;31531;-81
2022/03/31 10:58:26;;;;;;;7.65;5.32;;;12.70;1.40;;;14.89;94.55;93221.75;647839;216;42815;-76
2022/03/31 11:01:07;;;;;;;10.27;5.90;;;12.50;1.40;;;15.40;92.39;93220.06;646670;216;31594;-76
2022/03/31 11:04:00;;;;;;;9.90;6.62;;;12.60;1.40;;;16.42;89.06;93214.19;647720;216;31546;-81
2022/03/31 11:06:48;;;;;;;9.38;6.15;;;13.00;1.40;;;14.50;93.73;93215.74;644758;212;31557;-76
2022/03/31 11:09:31;;;;;;;8.70;5.03;;;12.40;1.40;;;14.42;93.99;93216.16;646170;212;31556;-76
2022/03/31 11:12:26;;;;;;;9.27;5.65;;;12.10;1.40;;;14.80;95.00;93217.37;646457;216;31558;-76
2022/03/31 11:15:16;;;;;;;9.88;5.50;;;12.30;1.40;;;15.10;97.18;93213.39;620539;222;32061;-78
2022/03/31 11:18:08;;;;;;;8.18;5.12;;;12.60;1.40;;;15.73;88.96;93207.20;645502;216;31611;-78
2022/03/31 11:23:30;;;;;;;9.00;6.10;;;13.00;1.40;;;15.84;89.82;93204.81;645778;216;42184;-76
2022/03/31 11:26:25;;;;;;;10.05;4.75;;;12.80;1.40;;;15.61;85.96;93204.34;647737;216;31743;-78
2022/03/31 11:29:09;;;;;;;8.95;5.18;;;12.80;1.40;;;15.30;90.29;93198.88;619026;222;31943;-78
2022/03/31 11:31:51;;;;;;;9.88;5.20;;;12.70;1.40;;;13.12;97.55;93198.70;648100;216;31569;-77
2022/03/31 11:35:51;;;;;;;10.02;4.82;;;11.90;1.40;;;15.18;94.85;93194.94;620092;222;31910;-78
2022/03/31 11:38:33;;;;;;;8.40;4.85;;;12.80;1.40;;;15.86;87.76;93192.14;647101;212;31584;-77
2022/03/31 11:41:21;;;;;;;7.35;4.97;;;13.10;1.40;;;16.29;84.86;93182.58;646903;216;31563;-76
2022/03/31 11:46:49;;;;;;;7.73;4.40;;;13.00;1.40;;;15.01;87.89;93185.14;646525;216;31582;-76
2022/03/31 11:49:35;;;;;;;10.15;4.60;;;12.30;1.40;;;15.75;88.86;93178.42;620203;226;32484;-76
2022/03/31 11:52:17;;;;;;;7.60;5.30;;;12.60;1.40;;;15.59;87.67;93180.44;646887;212;31559;-79
2022/03/31 11:55:06;;;;;;;8.40;5.30;;;12.80;1.40;;;15.67;87.14;93173.28;619068;226;32069;-76
2022/03/31 11:57:56;;;;;;;7.25;4.47;;;12.70;1.40;;;16.06;85.17;93165.92;619441;226;31920;-79
2022/03/31 12:00:37;;;;;;;7.40;4.60;;;13.10;1.40;;;15.88;84.50;93163.48;619844;226;31892;-77
2022/03/31 12:03:19;;;;;;;7.53;4.93;;;13.00;1.40;;;16.03;83.31;93157.37;646657;212;31602;-79
2022/03/31 12:06:01;;;;;;;8.07;4.65;;;13.10;1.40;;;14.53;84.65;93162.70;646672;216;31546;-76
2022/03/31 12:08:45;;;;;;;5.95;4.43;;;12.40;1.40;;;15.25;84.75;93158.28;636677;216;31668;-76
2022/03/31 12:11:32;;;;;;;8.25;5.70;;;12.40;1.40;;;13.83;93.30;93154.59;647340;212;31552;-79
2022/03/31 12:14:20;;;;;;;6.22;4.18;;;12.10;1.40;;;15.54;87.29;93154.91;641456;217;31810;-76
2022/03/31 12:17:08;;;;;;;7.40;4.90;;;13.00;1.40;;;15.62;83.03;93150.30;619688;225;31920;-79
2022/03/31 12:19:49;;;;;;;9.98;4.90;;;12.80;1.40;;;14.47;82.74;93149.38;620235;226;31945;-78
2022/03/31 12:22:33;;;;;;;9.77;5.30;;;12.30;1.40;;;15.06;85.81;93150.73;646761;212;31800;-77
2022/03/31 12:25:14;;;;;;;7.37;4.50;;;12.40;1.40;;;14.85;85.29;93153.29;648787;212;31542;-77
2022/03/31 12:27:59;;;;;;;9.00;4.90;;;12.20;1.40;;;13.02;93.86;93154.50;648302;216;31575;-79
2022/03/31 12:31:01;;;;;;;6.62;3.65;;;11.30;1.40;;;13.52;95.70;93145.03;645961;216;31610;-76